Time;durP1;ratioP1;P1;durP2;ratioP2;P2;SDS_P1;SDS_P2;PMS_P1;PMS_P2;Temp;Humidity;BMP_temperature;BMP_pressure;BME280_temperature;BME280_humidity;BME280_pressure;Samples;Min_cycle;Max_cycle;Signal;HPM_P1;HPM_P2
2022/07/21 00:00:27;;;;;;;15.18;11.57;;;;;;;18.63;89.92;94309.25;4993574;28;20073;-76
2022/07/21 00:02:55;;;;;;;15.13;10.95;;;;;;;18.79;89.02;94310.25;5005742;28;20402;-75
2022/07/21 00:05:23;;;;;;;16.73;11.50;;;;;;;18.82;89.15;94320.47;5007859;28;20050;-78
2022/07/21 00:07:51;;;;;;;16.85;11.25;;;;;;;18.77;89.48;94302.34;4993484;28;20042;-77
2022/07/21 00:10:19;;;;;;;17.50;11.47;;;;;;;18.65;90.79;94315.16;4993448;28;20430;-76
2022/07/21 00:12:46;;;;;;;17.55;12.75;;;;;;;18.64;92.29;94307.28;4992573;28;20054;-75
2022/07/21 00:15:14;;;;;;;17.85;12.00;;;;;;;18.65;91.81;94314.38;4990981;28;20042;-73
2022/07/21 00:17:41;;;;;;;16.60;12.00;;;;;;;18.68;91.62;94317.00;4991055;28;20073;-75
2022/07/21 00:20:09;;;;;;;16.45;11.73;;;;;;;18.64;92.46;94323.94;5005650;28;20402;-74
2022/07/21 00:22:37;;;;;;;16.93;11.80;;;;;;;18.73;91.90;94318.41;4991656;28;20595;-76
2022/07/21 00:25:07;;;;;;;18.58;12.10;;;;;;;18.44;90.75;94311.22;4993608;28;20050;-76
2022/07/21 00:27:34;;;;;;;21.35;12.63;;;;;;;18.13;94.11;94314.78;4991247;28;20046;-75
2022/07/21 00:30:03;;;;;;;17.42;12.40;;;;;;;18.25;94.27;94307.59;4994439;28;20072;-75
2022/07/21 00:32:30;;;;;;;16.33;12.82;;;;;;;18.15;94.27;94315.09;4992996;28;20056;-75
2022/07/21 00:35:03;;;;;;;17.67;12.90;;;;;;;18.21;94.55;94315.28;5008122;28;20054;-75
2022/07/21 00:37:30;;;;;;;15.85;12.23;;;;;;;18.36;94.17;94307.94;4997827;28;20057;-75
2022/07/21 00:39:57;;;;;;;20.85;14.77;;;;;;;18.39;92.91;94311.81;4993808;28;20046;-75
2022/07/21 00:42:27;;;;;;;20.67;15.05;;;;;;;18.45;92.08;94310.00;4992980;28;20495;-74
2022/07/21 00:44:54;;;;;;;16.63;12.38;;;;;;;18.53;91.76;94313.25;4995384;28;20068;-75
2022/07/21 00:47:23;;;;;;;16.20;12.37;;;;;;;18.49;92.79;94315.38;5008658;28;20053;-74
2022/07/21 00:49:51;;;;;;;15.63;11.50;;;;;;;18.60;92.07;94314.97;5003070;28;20116;-74
2022/07/21 00:52:18;;;;;;;15.65;11.40;;;;;;;18.61;90.80;94344.31;4996764;28;20038;-74
2022/07/21 00:54:45;;;;;;;14.40;10.68;;;;;;;18.69;90.35;94359.47;5007934;28;20038;-75
2022/07/21 00:57:13;;;;;;;16.35;11.65;;;;;;;18.44;91.39;94377.13;4992346;28;20042;-73
2022/07/21 00:59:41;;;;;;;19.10;12.47;;;;;;;18.28;93.60;94381.69;4974907;28;20054;-75
2022/07/21 01:02:08;;;;;;;19.85;13.25;;;;;;;18.19;95.32;94331.63;4997569;28;20042;-71
2022/07/21 01:04:35;;;;;;;19.98;13.88;;;;;;;17.97;98.34;94353.88;4996313;28;20042;-74
2022/07/21 01:07:04;;;;;;;20.45;14.48;;;;;;;18.11;99.96;94352.56;4990592;28;20050;-73
2022/07/21 01:09:33;;;;;;;19.70;13.70;;;;;;;18.23;98.16;94343.38;4990301;28;20081;-75
2022/07/21 01:12:00;;;;;;;20.00;14.23;;;;;;;18.02;98.16;94353.28;4990585;28;20042;-74
2022/07/21 01:14:27;;;;;;;19.58;14.40;;;;;;;18.03;99.32;94356.81;4989670;28;20054;-74
2022/07/21 01:16:54;;;;;;;22.60;14.63;;;;;;;18.19;99.67;94350.28;4990741;28;20054;-73
2022/07/21 01:19:21;;;;;;;21.65;14.80;;;;;;;18.30;99.44;94340.31;4989837;28;20042;-73
2022/07/21 01:21:48;;;;;;;19.60;14.93;;;;;;;18.34;98.25;94335.41;4990495;28;20555;-73
2022/07/21 01:24:15;;;;;;;21.50;14.50;;;;;;;18.47;98.00;94320.63;4989847;28;20369;-73
2022/07/21 01:26:44;;;;;;;22.55;15.10;;;;;;;18.49;97.40;94329.28;4989284;28;20050;-74
2022/07/21 01:29:12;;;;;;;20.63;14.35;;;;;;;18.52;97.34;94325.59;4990014;28;20054;-74
2022/07/21 01:31:40;;;;;;;20.80;14.77;;;;;;;18.54;96.64;94328.69;4989599;28;21651;-74
2022/07/21 01:34:08;;;;;;;19.17;13.48;;;;;;;18.56;95.42;94324.22;4997271;28;20441;-74
2022/07/21 01:36:35;;;;;;;18.40;13.00;;;;;;;18.58;95.75;94336.91;4996234;28;20046;-74
2022/07/21 01:41:48;;;;;;;19.05;12.98;;;;;;;18.68;95.55;94325.34;4989665;28;20094;-73
2022/07/21 01:44:17;;;;;;;17.52;12.85;;;;;;;18.73;95.39;94329.53;4988112;28;20058;-73
2022/07/21 01:46:48;;;;;;;18.92;13.32;;;;;;;18.72;95.10;94325.22;4989141;28;20038;-73
2022/07/21 01:49:16;;;;;;;17.30;12.50;;;;;;;18.72;95.13;94330.78;4989751;28;20173;-73
2022/07/21 01:51:44;;;;;;;16.33;12.10;;;;;;;18.73;94.61;94326.75;4990158;28;20053;-73
2022/07/21 01:54:11;;;;;;;18.77;12.43;;;;;;;18.73;94.28;94327.53;4976867;28;20042;-71
2022/07/21 01:56:39;;;;;;;21.83;14.63;;;;;;;18.46;95.75;94330.97;4995722;28;20121;-73
2022/07/21 01:59:06;;;;;;;20.80;14.95;;;;;;;18.62;95.48;94329.19;4973398;28;20035;-73
2022/07/21 02:01:35;;;;;;;20.40;14.57;;;;;;;18.74;95.43;94322.75;4989588;28;20038;-73
2022/07/21 02:04:04;;;;;;;20.27;14.13;;;;;;;18.58;94.98;94321.00;4990384;28;20042;-73
2022/07/21 02:06:31;;;;;;;21.33;14.93;;;;;;;18.65;95.54;94336.59;4977552;28;20123;-72
2022/07/21 02:08:58;;;;;;;19.65;14.48;;;;;;;18.50;95.32;94326.06;4970734;28;20058;-73
2022/07/21 02:11:25;;;;;;;19.90;14.35;;;;;;;18.40;96.25;94312.59;4970113;28;20049;-73
2022/07/21 02:13:51;;;;;;;18.80;14.00;;;;;;;18.47;96.39;94310.31;4986634;28;20045;-73
2022/07/21 02:16:18;;;;;;;19.83;14.43;;;;;;;18.46;96.36;94313.53;4980018;28;20078;-72
2022/07/21 02:18:46;;;;;;;20.15;15.40;;;;;;;18.44;97.31;94311.22;4970423;28;20050;-73
2022/07/21 02:21:12;;;;;;;22.40;15.45;;;;;;;18.45;98.36;94323.09;4969988;28;20557;-72
2022/07/21 02:23:39;;;;;;;18.95;13.65;;;;;;;18.45;97.28;94311.97;4980876;28;20497;-73
2022/07/21 02:26:06;;;;;;;20.37;14.00;;;;;;;18.38;96.66;94318.59;4975169;28;20042;-74
2022/07/21 02:28:33;;;;;;;17.80;13.40;;;;;;;18.37;97.05;94322.59;4980283;28;20049;-73
2022/07/21 02:31:00;;;;;;;19.35;13.25;;;;;;;18.35;97.02;94327.84;4989041;28;20047;-71
2022/07/21 02:33:27;;;;;;;15.82;12.50;;;;;;;18.44;97.81;94327.13;4974852;28;20059;-73
2022/07/21 02:35:54;;;;;;;17.80;12.52;;;;;;;18.46;96.73;94321.88;4991935;28;20035;-72
2022/07/21 02:38:21;;;;;;;17.33;12.47;;;;;;;18.54;96.48;94328.69;4973274;28;20050;-72
2022/07/21 02:40:48;;;;;;;15.93;12.90;;;;;;;18.52;97.56;94320.03;4974121;28;20047;-72
2022/07/21 02:43:23;;;;;;;17.02;11.80;;;;;;;18.60;96.16;94326.88;4973081;28;20047;-71
2022/07/21 02:45:49;;;;;;;17.60;12.55;;;;;;;18.62;96.12;94335.53;4973831;28;20039;-73
2022/07/21 02:48:16;;;;;;;20.05;14.32;;;;;;;18.31;97.65;94328.00;4988140;28;20034;-72
2022/07/21 02:50:44;;;;;;;21.43;15.13;;;;;;;18.12;98.51;94329.13;4987666;28;20042;-73
2022/07/21 02:53:17;;;;;;;18.83;13.70;;;;;;;18.15;97.14;94334.53;4985087;28;20087;-73
2022/07/21 02:55:45;;;;;;;17.55;13.20;;;;;;;17.89;99.73;94338.72;4986192;28;20317;-73
2022/07/21 02:58:14;;;;;;;20.23;14.52;;;;;;;17.87;100.00;94341.16;4993168;28;20054;-69
2022/07/21 03:00:49;;;;;;;19.40;14.57;;;;;;;18.01;100.00;94348.97;4977539;28;20396;-73
2022/07/21 03:03:16;;;;;;;18.40;13.73;;;;;;;18.12;99.34;94343.78;4996937;28;20042;-72
2022/07/21 03:05:43;;;;;;;17.77;13.77;;;;;;;18.16;99.48;94341.63;4992835;28;20048;-73
2022/07/21 03:08:11;;;;;;;21.13;14.55;;;;;;;18.31;99.44;94336.34;4992668;28;20145;-73
2022/07/21 03:10:38;;;;;;;17.45;13.52;;;;;;;18.39;98.69;94334.06;4991590;28;20399;-73
2022/07/21 03:13:06;;;;;;;19.50;14.02;;;;;;;18.39;97.93;94338.81;4992978;28;20039;-73
2022/07/21 03:15:33;;;;;;;20.70;14.00;;;;;;;18.46;98.09;94325.44;4991729;28;20054;-72
2022/07/21 03:18:00;;;;;;;19.38;14.68;;;;;;;18.25;98.74;94318.72;4992832;28;20503;-74
2022/07/21 03:20:30;;;;;;;19.45;14.45;;;;;;;18.39;98.83;94319.38;4991980;28;20050;-73
2022/07/21 03:22:57;;;;;;;20.67;14.73;;;;;;;18.41;98.38;94330.78;4992310;28;20048;-74
2022/07/21 03:25:24;;;;;;;20.90;15.10;;;;;;;18.26;98.46;94334.13;4991688;28;20057;-72
2022/07/21 03:27:52;;;;;;;20.23;14.27;;;;;;;18.32;98.64;94332.31;4992092;28;20046;-72
2022/07/21 03:30:21;;;;;;;19.15;14.77;;;;;;;18.38;98.57;94318.59;4991533;28;20046;-73
2022/07/21 03:32:49;;;;;;;20.98;14.80;;;;;;;18.33;98.50;94321.97;4992373;28;20046;-73
2022/07/21 03:35:16;;;;;;;19.90;15.20;;;;;;;18.29;98.39;94322.13;4997859;28;20057;-70
2022/07/21 03:37:46;;;;;;;20.65;15.27;;;;;;;18.22;98.79;94327.16;4991973;28;20046;-73
2022/07/21 03:40:15;;;;;;;21.93;16.37;;;;;;;18.18;98.92;94330.06;4992005;28;20046;-74
2022/07/21 03:42:42;;;;;;;20.17;15.45;;;;;;;18.40;98.46;94334.81;4992337;28;20039;-73
2022/07/21 03:45:10;;;;;;;21.17;15.57;;;;;;;18.29;98.22;94333.22;4992247;28;20046;-74
2022/07/21 03:47:37;;;;;;;20.92;14.38;;;;;;;18.20;98.30;94330.41;4991445;28;21560;-73
2022/07/21 03:50:05;;;;;;;22.88;15.90;;;;;;;18.18;99.29;94341.19;4991769;28;20034;-73
2022/07/21 03:52:32;;;;;;;21.60;16.00;;;;;;;18.26;99.93;94342.47;4991213;28;20052;-73
2022/07/21 03:55:08;;;;;;;20.08;15.23;;;;;;;18.31;99.12;94347.44;4990773;28;20054;-72
2022/07/21 03:57:54;;;;;;;19.92;14.63;;;;;;;18.33;98.66;94352.53;4998553;28;20834;-74
2022/07/21 04:00:41;;;;;;;19.70;15.05;;;;;;;18.02;99.39;94358.06;4985294;28;20057;-73
2022/07/21 04:03:08;;;;;;;20.85;14.95;;;;;;;17.90;100.00;94359.69;4987163;28;20031;-73
2022/07/21 04:05:37;;;;;;;19.47;14.47;;;;;;;18.01;100.00;94362.84;4979815;28;20101;-72
2022/07/21 04:08:05;;;;;;;21.60;15.20;;;;;;;18.11;99.57;94375.56;4972004;28;20075;-73
2022/07/21 04:10:34;;;;;;;20.40;15.07;;;;;;;18.12;99.46;94373.56;4978151;28;20427;-73
2022/07/21 04:13:03;;;;;;;20.42;15.75;;;;;;;18.11;99.53;94374.78;4991646;28;20038;-72
2022/07/21 04:15:30;;;;;;;21.63;15.80;;;;;;;17.85;100.00;94383.25;4973191;28;20046;-73
2022/07/21 04:17:57;;;;;;;23.27;15.80;;;;;;;17.85;100.00;94382.47;4972369;28;20100;-73
2022/07/21 04:20:24;;;;;;;21.60;16.73;;;;;;;17.89;100.00;94378.34;4971354;28;20518;-73
2022/07/21 04:22:52;;;;;;;20.98;15.43;;;;;;;18.00;100.00;94368.84;4970686;28;20050;-73
2022/07/21 04:25:19;;;;;;;22.50;15.50;;;;;;;18.10;98.64;94360.13;4971415;28;20051;-71
2022/07/21 04:27:48;;;;;;;20.40;15.05;;;;;;;18.00;99.18;94375.19;4971219;28;20043;-72
2022/07/21 04:30:17;;;;;;;23.67;15.87;;;;;;;17.90;100.00;94376.34;4983883;28;20065;-71
2022/07/21 04:32:45;;;;;;;22.73;15.55;;;;;;;17.86;100.00;94379.25;4977199;28;20043;-73
2022/07/21 04:35:12;;;;;;;20.80;16.00;;;;;;;17.88;99.66;94385.13;4991065;28;20048;-73
2022/07/21 04:37:40;;;;;;;21.77;15.45;;;;;;;18.08;98.90;94382.03;4996260;28;20050;-72
2022/07/21 04:40:09;;;;;;;22.10;15.85;;;;;;;18.26;97.43;94380.59;4971746;28;20076;-73
2022/07/21 04:42:37;;;;;;;21.77;15.60;;;;;;;18.37;96.13;94383.72;4983315;28;20054;-72
2022/07/21 04:45:06;;;;;;;20.88;15.73;;;;;;;18.38;95.46;94384.53;4972022;28;20043;-71
2022/07/21 04:47:52;;;;;;;21.35;16.75;;;;;;;18.29;95.28;94385.22;4970490;28;20073;-72
2022/07/21 04:50:21;;;;;;;21.38;15.60;;;;;;;18.49;94.18;94396.78;4969859;28;20047;-72
2022/07/21 04:52:49;;;;;;;25.88;16.00;;;;;;;18.64;92.61;94401.78;4971232;28;20277;-73
2022/07/21 04:55:17;;;;;;;21.67;16.20;;;;;;;18.54;90.13;94393.41;4970919;28;20043;-73
2022/07/21 04:57:46;;;;;;;22.05;15.75;;;;;;;18.74;89.77;94406.16;4971241;28;20053;-73
2022/07/21 05:00:16;;;;;;;19.90;15.48;;;;;;;18.95;88.76;94405.34;4975034;28;20047;-72
2022/07/21 05:02:43;;;;;;;21.75;16.35;;;;;;;19.07;86.28;94411.25;4990193;28;20422;-73
2022/07/21 05:05:10;;;;;;;20.10;15.52;;;;;;;19.05;87.26;94405.38;4987145;28;20034;-72
2022/07/21 05:07:37;;;;;;;21.47;14.97;;;;;;;19.30;86.54;94407.16;4988852;28;20042;-76
2022/07/21 05:10:06;;;;;;;20.58;14.50;;;;;;;19.51;84.56;94406.22;4990368;28;20472;-74
2022/07/21 05:12:32;;;;;;;19.90;14.50;;;;;;;19.46;81.63;94408.88;4976963;28;20616;-72
2022/07/21 05:14:59;;;;;;;20.13;14.20;;;;;;;19.54;81.95;94402.53;4970458;28;20439;-74
2022/07/21 05:17:26;;;;;;;21.98;15.60;;;;;;;19.38;81.71;94411.19;4973164;28;20515;-74
2022/07/21 05:19:53;;;;;;;19.23;14.07;;;;;;;19.38;82.09;94413.97;4981426;28;20401;-72
2022/07/21 05:22:25;;;;;;;20.02;15.05;;;;;;;19.31;82.07;94406.66;4970104;28;20385;-74
2022/07/21 05:24:52;;;;;;;18.95;14.45;;;;;;;19.50;81.01;94404.69;4971110;28;20389;-75
2022/07/21 05:27:19;;;;;;;19.10;14.25;;;;;;;19.61;80.78;94400.69;4982728;28;20097;-74
2022/07/21 05:29:45;;;;;;;19.52;14.77;;;;;;;19.95;78.04;94400.41;4971949;28;20047;-75
2022/07/21 05:32:12;;;;;;;18.73;13.97;;;;;;;20.05;77.17;94403.97;4971203;28;20051;-75
2022/07/21 05:34:39;;;;;;;20.45;14.88;;;;;;;19.88;78.42;94402.72;4989016;28;20910;-74
2022/07/21 05:37:06;;;;;;;20.27;14.50;;;;;;;19.87;79.24;94401.19;4989029;28;20038;-75
2022/07/21 05:39:32;;;;;;;18.45;14.68;;;;;;;20.61;76.01;94407.47;4988550;28;20054;-73
2022/07/21 05:41:59;;;;;;;22.08;14.82;;;;;;;21.03;72.35;94405.91;4990039;28;20034;-76
2022/07/21 05:44:26;;;;;;;20.50;14.00;;;;;;;22.13;69.50;94398.81;4989000;28;20050;-76
2022/07/21 05:46:53;;;;;;;18.38;13.88;;;;;;;22.65;66.14;94410.47;4989883;28;20046;-75
2022/07/21 05:49:20;;;;;;;20.58;14.25;;;;;;;21.48;69.49;94413.28;4988572;28;20094;-75
2022/07/21 05:51:46;;;;;;;19.48;14.05;;;;;;;20.97;71.68;94416.94;4983184;28;20064;-74
2022/07/21 05:54:13;;;;;;;18.40;14.07;;;;;;;22.13;67.65;94415.59;4989584;28;20165;-66
2022/07/21 05:56:40;;;;;;;17.93;13.50;;;;;;;23.95;62.54;94403.22;4989500;28;20038;-68
2022/07/21 05:59:07;;;;;;;17.08;13.10;;;;;;;24.86;58.60;94408.47;4995453;28;20056;-67
2022/07/21 06:01:34;;;;;;;18.35;13.95;;;;;;;25.54;55.48;94421.00;4991953;28;20046;-64
2022/07/21 06:04:01;;;;;;;15.95;13.30;;;;;;;26.60;52.68;94416.31;4992266;28;21698;-65
2022/07/21 06:06:27;;;;;;;18.90;14.20;;;;;;;26.82;51.67;94412.78;4991466;28;20085;-65
2022/07/21 06:08:55;;;;;;;17.80;13.17;;;;;;;27.78;48.56;94419.09;4990168;28;20046;-65
2022/07/21 06:11:23;;;;;;;15.98;12.45;;;;;;;28.06;46.93;94421.09;4993568;28;20046;-65
2022/07/21 06:13:49;;;;;;;14.73;12.75;;;;;;;28.60;45.46;94417.78;4985906;28;20043;-69
2022/07/21 06:16:16;;;;;;;15.77;12.35;;;;;;;29.41;45.15;94416.66;4979709;28;20113;-65
2022/07/21 06:18:43;;;;;;;13.50;12.02;;;;;;;30.51;41.57;94408.03;4973935;28;20093;-65
2022/07/21 06:21:10;;;;;;;14.73;12.57;;;;;;;28.35;45.34;94408.38;4974280;28;20053;-65
2022/07/21 06:23:37;;;;;;;17.45;12.82;;;;;;;29.48;42.68;94416.84;4986980;28;20043;-65
2022/07/21 06:26:04;;;;;;;14.15;11.90;;;;;;;30.97;39.78;94418.19;4974059;28;20039;-69
2022/07/21 06:28:30;;;;;;;15.30;11.65;;;;;;;30.40;39.35;94418.16;4974785;28;20043;-66
2022/07/21 06:30:57;;;;;;;16.05;12.10;;;;;;;28.42;43.77;94416.31;4987797;28;20435;-68
2022/07/21 06:33:24;;;;;;;15.23;11.47;;;;;;;28.17;44.37;94423.09;4974828;28;20550;-65
2022/07/21 06:35:51;;;;;;;23.77;21.30;;;;;;;27.76;45.82;94429.38;4991263;28;20097;-68
2022/07/21 06:38:17;;;;;;;14.02;11.55;;;;;;;29.53;41.48;94426.56;4973537;28;20393;-68
2022/07/21 06:40:44;;;;;;;13.68;12.10;;;;;;;28.39;43.08;94441.97;4987516;28;20049;-69
2022/07/21 06:43:12;;;;;;;15.88;11.10;;;;;;;29.96;40.33;94442.91;4974062;28;20050;-68
2022/07/21 06:45:54;;;;;;;12.70;10.63;;;;;;;32.69;34.75;94440.88;4972875;28;20410;-69
2022/07/21 06:48:21;;;;;;;14.32;11.50;;;;;;;30.78;37.75;94445.75;4973244;28;20065;-68
2022/07/21 06:50:49;;;;;;;11.25;10.05;;;;;;;31.68;36.69;94446.44;4973424;28;20041;-71
2022/07/21 06:53:16;;;;;;;10.88;9.55;;;;;;;33.25;34.03;94448.16;4972996;28;20416;-71
2022/07/21 06:55:43;;;;;;;13.38;10.70;;;;;;;30.40;38.57;94454.22;4973367;28;20034;-68
2022/07/21 06:58:15;;;;;;;12.37;10.77;;;;;;;28.54;42.22;94453.00;4973666;28;20092;-67
2022/07/21 07:00:47;;;;;;;12.55;11.20;;;;;;;27.67;44.17;94459.38;4979972;28;20182;-70
2022/07/21 07:03:15;;;;;;;12.70;10.48;;;;;;;27.46;44.61;94458.13;4992157;28;20056;-67
2022/07/21 07:05:44;;;;;;;14.35;11.02;;;;;;;26.55;47.46;94462.09;4986462;28;20455;-67
2022/07/21 07:08:12;;;;;;;13.10;10.82;;;;;;;26.66;47.32;94459.34;4975636;28;20045;-67
2022/07/21 07:10:40;;;;;;;13.10;10.87;;;;;;;28.37;43.67;94456.63;5002496;28;21851;-67
2022/07/21 07:13:08;;;;;;;14.20;10.85;;;;;;;30.51;39.04;94462.59;5000102;28;20045;-70
2022/07/21 07:15:55;;;;;;;14.50;11.13;;;;;;;31.61;37.15;94462.00;4994537;28;20398;-68
2022/07/21 07:18:23;;;;;;;14.15;10.02;;;;;;;31.63;35.80;94465.84;4992258;28;20387;-68
2022/07/21 07:20:51;;;;;;;14.13;10.52;;;;;;;29.60;39.27;94454.28;4993377;28;20065;-68
2022/07/21 07:23:18;;;;;;;14.63;10.33;;;;;;;32.03;36.23;94462.31;5004144;28;20065;-71
2022/07/21 07:25:45;;;;;;;11.57;10.32;;;;;;;29.72;39.13;94466.28;4992321;28;20050;-67
2022/07/21 07:28:12;;;;;;;12.15;9.90;;;;;;;27.58;43.86;94461.72;4991049;28;20663;-67
2022/07/21 07:30:39;;;;;;;12.90;10.75;;;;;;;26.94;45.00;94472.69;4991212;28;20747;-67
2022/07/21 07:33:06;;;;;;;12.65;10.27;;;;;;;27.20;44.49;94464.78;4992361;28;20069;-66
2022/07/21 07:35:33;;;;;;;12.67;9.87;;;;;;;28.92;41.46;94467.41;5009922;28;20408;-68
2022/07/21 07:38:00;;;;;;;13.65;10.38;;;;;;;28.28;40.87;94460.50;5001077;28;20049;-70
2022/07/21 07:40:27;;;;;;;13.32;9.98;;;;;;;31.56;36.11;94471.41;5003285;28;20482;-68
2022/07/21 07:42:53;;;;;;;12.95;9.52;;;;;;;32.24;33.60;94460.34;4992166;28;20045;-67
2022/07/21 07:45:21;;;;;;;11.63;8.95;;;;;;;33.36;32.83;94464.94;4991446;28;20526;-66
2022/07/21 07:47:48;;;;;;;11.40;9.47;;;;;;;31.32;34.23;94467.38;4991812;28;20088;-66
2022/07/21 07:50:15;;;;;;;10.27;8.50;;;;;;;32.46;33.18;94466.91;4991113;28;20042;-66
2022/07/21 07:52:44;;;;;;;10.32;8.32;;;;;;;30.81;36.44;94470.94;4991566;28;20046;-65
2022/07/21 07:55:12;;;;;;;10.55;8.70;;;;;;;28.60;39.61;94474.25;4991970;28;20050;-68
2022/07/21 07:57:40;;;;;;;11.15;8.85;;;;;;;28.58;40.11;94471.19;4986410;28;20045;-69
2022/07/21 08:00:10;;;;;;;11.27;8.87;;;;;;;30.51;36.61;94470.31;4972295;28;20046;-68
2022/07/21 08:02:57;;;;;;;9.63;8.20;;;;;;;32.86;32.01;94466.88;5012620;28;21442;-66
2022/07/21 08:05:24;;;;;;;10.02;8.23;;;;;;;34.00;30.31;94466.44;4998736;28;20049;-68
2022/07/21 08:07:50;;;;;;;8.77;7.60;;;;;;;35.44;26.90;94468.25;5010844;28;20073;-67
2022/07/21 08:10:17;;;;;;;10.38;7.82;;;;;;;33.01;30.26;94460.56;5010799;28;20049;-67
2022/07/21 08:13:04;;;;;;;8.73;7.43;;;;;;;33.49;31.32;94461.28;5011120;28;20050;-67
2022/07/21 08:15:33;;;;;;;10.70;7.40;;;;;;;33.44;30.16;94459.31;5010248;28;20114;-69
2022/07/21 08:18:01;;;;;;;9.15;7.20;;;;;;;33.14;30.73;94456.94;5011137;28;20433;-70
2022/07/21 08:20:28;;;;;;;8.55;7.38;;;;;;;33.46;30.58;94461.59;5010562;28;20080;-67
2022/07/21 08:22:55;;;;;;;8.52;7.03;;;;;;;34.24;29.21;94455.25;5008774;28;20475;-66
2022/07/21 08:25:22;;;;;;;9.20;6.60;;;;;;;32.80;30.78;94449.13;4998237;28;20495;-67
2022/07/21 08:27:49;;;;;;;9.18;7.28;;;;;;;34.19;29.26;94448.38;5010185;28;20042;-67
2022/07/21 08:30:16;;;;;;;8.68;6.72;;;;;;;36.05;26.75;94448.31;4996195;28;20113;-68
2022/07/21 08:32:43;;;;;;;8.02;6.40;;;;;;;36.18;26.76;94450.22;5010704;28;20529;-67
2022/07/21 08:35:10;;;;;;;7.72;6.10;;;;;;;37.59;24.00;94447.78;5010201;28;20107;-68
2022/07/21 08:37:38;;;;;;;6.73;6.03;;;;;;;36.01;25.50;94456.50;5010111;28;20050;-67
2022/07/21 08:40:07;;;;;;;7.15;6.13;;;;;;;36.27;25.59;94455.34;5009454;28;20544;-67
2022/07/21 08:42:36;;;;;;;9.63;6.03;;;;;;;37.70;23.69;94455.13;5007635;28;20049;-67
2022/07/21 08:45:05;;;;;;;6.78;5.60;;;;;;;38.04;23.35;94448.72;4989786;28;20045;-67
2022/07/21 08:47:32;;;;;;;6.82;5.00;;;;;;;39.17;20.77;94455.19;4990589;28;20058;-70
2022/07/21 08:50:00;;;;;;;6.23;4.80;;;;;;;37.41;23.89;94454.72;5008939;28;20406;-67
2022/07/21 08:52:27;;;;;;;7.07;5.18;;;;;;;35.38;26.14;94454.94;5009894;28;20045;-67
2022/07/21 08:54:56;;;;;;;6.38;5.00;;;;;;;34.80;26.91;94456.50;5008480;28;20042;-67
2022/07/21 08:57:23;;;;;;;6.72;5.00;;;;;;;37.87;23.54;94448.69;5009965;28;20052;-67
2022/07/21 08:59:50;;;;;;;7.28;5.00;;;;;;;38.56;22.00;94453.81;5009589;28;20057;-66
2022/07/21 09:02:29;;;;;;;5.93;5.03;;;;;;;38.44;21.81;94452.75;5011644;28;20038;-66
2022/07/21 09:04:56;;;;;;;7.03;5.10;;;;;;;39.82;20.32;94447.34;5009800;28;20046;-67
2022/07/21 09:07:23;;;;;;;6.47;5.10;;;;;;;38.49;21.12;94446.00;5009770;28;20050;-70
2022/07/21 09:09:58;;;;;;;9.00;5.55;;;;;;;33.93;27.50;94450.06;5009792;28;20034;-68
2022/07/21 09:12:26;;;;;;;6.32;4.65;;;;;;;38.47;22.23;94445.84;5009849;28;20399;-67
2022/07/21 09:15:15;;;;;;;6.40;4.60;;;;;;;36.77;24.08;94443.41;5009847;28;20083;-67
2022/07/21 09:17:42;;;;;;;5.68;4.90;;;;;;;36.24;23.74;94447.16;5009277;28;20041;-67
2022/07/21 09:20:29;;;;;;;6.35;5.07;;;;;;;35.04;26.60;94448.78;5009595;28;20054;-66
2022/07/21 09:23:03;;;;;;;7.38;5.68;;;;;;;36.78;24.40;94451.44;5009703;28;20042;-65
2022/07/21 09:25:45;;;;;;;7.95;5.28;;;;;;;37.18;23.56;94444.19;5009697;28;20052;-67
2022/07/21 09:28:26;;;;;;;6.60;5.37;;;;;;;37.81;22.88;94442.44;5010012;28;20050;-69
2022/07/21 09:31:00;;;;;;;6.40;5.30;;;;;;;39.67;20.37;94437.63;5008212;28;20772;-67
2022/07/21 09:33:44;;;;;;;6.45;4.97;;;;;;;38.12;21.65;94440.09;5011100;28;20096;-67
2022/07/21 09:36:16;;;;;;;7.40;5.38;;;;;;;36.12;24.56;94439.00;5016554;28;20111;-70
2022/07/21 09:38:49;;;;;;;5.90;5.20;;;;;;;36.65;23.97;94442.34;5015075;28;20664;-67
2022/07/21 09:41:19;;;;;;;6.63;5.50;;;;;;;38.02;22.28;94437.09;5001553;28;20050;-67
2022/07/21 09:43:51;;;;;;;5.90;5.25;;;;;;;39.50;20.93;94438.47;5015898;28;20103;-66
2022/07/21 09:46:23;;;;;;;7.43;5.72;;;;;;;38.03;21.93;94434.97;5015753;28;20061;-66
2022/07/21 09:48:53;;;;;;;14.10;6.03;;;;;;;35.89;25.05;94436.16;5016092;28;20050;-66
2022/07/21 09:51:43;;;;;;;7.05;5.85;;;;;;;37.61;22.77;94425.03;5015013;28;21521;-66
2022/07/21 09:54:12;;;;;;;7.40;6.00;;;;;;;35.91;24.96;94435.56;5015268;28;20038;-66
2022/07/21 09:56:41;;;;;;;6.85;5.90;;;;;;;34.55;26.76;94436.19;5013818;28;20383;-65
2022/07/21 09:59:12;;;;;;;8.05;6.00;;;;;;;36.65;24.61;94431.66;5016009;28;20418;-72
2022/07/21 10:01:40;;;;;;;6.60;5.47;;;;;;;35.53;25.34;94425.66;5017792;28;21525;-67
2022/07/21 10:04:07;;;;;;;8.15;6.20;;;;;;;37.12;22.92;94421.50;5021618;28;20046;-66
2022/07/21 10:06:39;;;;;;;7.60;6.00;;;;;;;37.67;22.65;94413.31;5009938;28;20046;-69
2022/07/21 10:09:08;;;;;;;7.75;5.78;;;;;;;36.16;24.60;94424.31;5007604;28;20513;-67
2022/07/21 10:11:39;;;;;;;7.90;6.32;;;;;;;33.96;27.63;94422.56;5015632;28;20042;-71
2022/07/21 10:14:09;;;;;;;8.00;6.60;;;;;;;32.45;30.00;94420.66;5014665;28;20046;-66
2022/07/21 10:16:36;;;;;;;8.88;6.30;;;;;;;32.93;29.37;94419.94;5015831;28;20038;-65
2022/07/21 10:19:12;;;;;;;8.03;6.03;;;;;;;31.92;30.71;94414.25;5016274;28;20401;-65
2022/07/21 10:21:46;;;;;;;7.95;6.40;;;;;;;30.88;31.81;94420.63;5014630;28;21715;-66
2022/07/21 10:24:13;;;;;;;7.65;5.95;;;;;;;30.88;32.10;94426.28;5016080;28;20337;-65
2022/07/21 10:26:59;;;;;;;7.20;6.00;;;;;;;30.60;33.43;94425.38;5014377;28;20769;-65
2022/07/21 10:29:48;;;;;;;8.80;7.38;;;;;;;30.39;33.68;94427.97;5004363;28;20048;-65
2022/07/21 10:32:16;;;;;;;9.17;6.60;;;;;;;29.99;34.67;94424.06;5013923;28;20050;-65
2022/07/21 10:34:43;;;;;;;8.02;6.15;;;;;;;33.07;29.54;94415.72;5015080;28;20046;-67
2022/07/21 10:37:11;;;;;;;7.65;6.05;;;;;;;34.56;27.09;94412.84;5015502;28;20048;-66
2022/07/21 10:39:38;;;;;;;7.13;6.40;;;;;;;34.24;26.66;94416.09;5015473;28;20087;-66
2022/07/21 10:42:16;;;;;;;10.13;6.70;;;;;;;32.36;28.34;94415.44;5015731;28;20045;-67
2022/07/21 10:44:45;;;;;;;7.63;5.60;;;;;;;32.14;28.90;94413.84;5014694;28;20386;-66
2022/07/21 10:47:18;;;;;;;7.18;5.53;;;;;;;33.08;28.32;94422.91;5012692;28;20046;-66
2022/07/21 10:49:55;;;;;;;7.15;5.43;;;;;;;33.77;27.20;94419.97;5011751;28;20328;-67
2022/07/21 10:52:41;;;;;;;7.07;4.95;;;;;;;32.46;28.70;94415.78;5012157;28;20042;-69
2022/07/21 10:55:11;;;;;;;6.80;4.72;;;;;;;31.67;29.62;94419.34;5012716;28;20053;-67
2022/07/21 10:57:39;;;;;;;6.27;4.50;;;;;;;31.87;28.93;94413.03;4998222;28;20034;-66
2022/07/21 11:00:27;;;;;;;5.50;4.30;;;;;;;31.88;28.43;94410.97;5012438;28;20052;-67
2022/07/21 11:02:56;;;;;;;6.00;4.20;;;;;;;31.88;28.49;94405.31;5019856;28;20616;-67
2022/07/21 11:05:24;;;;;;;6.32;4.15;;;;;;;31.09;29.59;94406.66;5012128;28;20049;-67
2022/07/21 11:08:18;;;;;;;5.47;4.00;;;;;;;30.95;29.09;94406.63;4998223;28;20064;-66
2022/07/21 11:10:48;;;;;;;5.47;3.90;;;;;;;29.89;31.14;94397.44;5009814;28;20119;-65
2022/07/21 11:13:16;;;;;;;6.65;4.22;;;;;;;28.54;33.19;94391.63;5011839;28;20060;-67
2022/07/21 11:15:53;;;;;;;5.03;3.78;;;;;;;29.36;31.80;94390.00;5011829;28;20042;-68
2022/07/21 11:18:21;;;;;;;5.72;3.90;;;;;;;29.21;30.79;94387.53;5011855;28;20053;-68
2022/07/21 11:21:10;;;;;;;4.82;3.60;;;;;;;29.57;30.89;94381.81;5012063;28;20045;-68
2022/07/21 11:23:47;;;;;;;5.27;3.53;;;;;;;29.23;31.48;94379.31;5000415;28;20042;-65
2022/07/21 11:26:19;;;;;;;4.25;3.20;;;;;;;30.10;30.68;94384.31;5011792;28;20056;-65
2022/07/21 11:28:46;;;;;;;4.68;3.20;;;;;;;30.79;29.56;94374.38;5011468;28;20111;-67
2022/07/21 11:31:17;;;;;;;4.53;3.30;;;;;;;30.74;28.74;94380.88;5011375;28;20384;-68
2022/07/21 11:33:46;;;;;;;4.90;3.45;;;;;;;30.14;29.88;94375.50;5011579;28;20078;-67